Thomson Dream — 9HA2381 — position and weather

sailwx.info

Track history (hours):
 
Tides and Currents Weather Stations Pressure Air Temp Water Temp Dewpoint Dewpoint Depression Visibility Wind Speed Wind Dir Waves Ship Positions

Thomson Dream

Last reported at 2016-May-04 18:07 UTC. Time now 2016-May-06 14:56 UTC.
Position N 37°47' E 016°05'.

Length 243 m; draft 7.6 m.

Type: Ship. MMSI: 248480975.

Date/timePositionNaut miles runAvg speedWind from/ knotsBaromVisibWave heightAir tempDewpointWater temp
2016-May-04 18:07N 37°47' E 016°05'1017.3
2016-May-04 17:33N 37°47' E 015°53'1616.4
2016-May-04 16:34N 37°50' E 015°32'1717.5
2016-May-04 15:33N 38°07' E 015°35'5 2.4
2016-May-04 13:33N 38°12' E 015°33'0 0.0
2016-May-04 12:33N 38°12' E 015°33'0 0.0
2016-May-04 11:33N 38°12' E 015°33'0 0.0
2016-May-04 10:33N 38°12' E 015°33'0 0.0
2016-May-04 09:33N 38°12' E 015°33'0 0.0
2016-May-04 08:33N 38°12' E 015°33'0 0.0
2016-May-04 07:33N 38°12' E 015°33'0 0.0
2016-May-04 06:33N 38°12' E 015°33'0 0.0
2016-May-04 05:21N 38°12' E 015°33'2 2.2
2016-May-04 04:33N 38°13' E 015°35'9 8.9
2016-May-04 03:34N 38°21' E 015°39'1211.9
2016-May-04 02:34N 38°32' E 015°32'1212.3
2016-May-04 01:33N 38°43' E 015°26'1312.6
2016-May-04 00:33N 38°55' E 015°20'1817.7
2016-May-03 23:33N 39°07' E 015°03'  
2016-May-01 00:32N 39°27' E 003°43'1717.7
2016-Apr-30 23:33N 39°19' E 003°23'1616.5
2016-Apr-30 22:33N 39°14' E 003°03'1818.0
2016-Apr-30 21:33N 39°20' E 002°41'1313.4
2016-Apr-30 20:33N 39°33' E 002°38'0 0.1
2016-Apr-30 19:33N 39°33' E 002°38'0 0.0
2016-Apr-30 18:33N 39°33' E 002°38'0 0.0
2016-Apr-30 17:33N 39°33' E 002°38'0 0.0
2016-Apr-30 16:33N 39°33' E 002°38'0 0.0
2016-Apr-30 15:33N 39°33' E 002°38'0 0.0
2016-Apr-30 14:33N 39°33' E 002°38'0 0.0
2016-Apr-30 13:33N 39°33' E 002°38'0 0.0
2016-Apr-30 12:21N 39°33' E 002°38'0 0.0
2016-Apr-30 11:33N 39°33' E 002°38'0 0.0
2016-Apr-30 10:33N 39°33' E 002°38'0 0.0
2016-Apr-30 09:27N 39°33' E 002°38'0 0.0
2016-Apr-30 08:33N 39°33' E 002°38'0 0.0
2016-Apr-30 07:33N 39°33' E 002°38'0 0.0
2016-Apr-30 06:33N 39°33' E 002°38'0 0.0
2016-Apr-30 05:33N 39°33' E 002°38'0 0.0
2016-Apr-30 04:33N 39°33' E 002°38'0 0.0
2016-Apr-30 03:33N 39°33' E 002°38'0 0.3
2016-Apr-30 02:34N 39°33' E 002°38'8 8.0
2016-Apr-30 01:33N 39°26' E 002°34'1515.4
2016-Apr-30 00:33N 39°21' E 002°15'1716.8
2016-Apr-29 23:33N 39°17' E 001°54'2418.4
2016-Apr-29 22:16N 39°11' E 001°24'110 7.0
2016-Apr-29 06:33N 38°01' W 000°24'1818.1
2016-Apr-29 05:33N 37°43' W 000°28'1717.1
2016-Apr-29 04:33N 37°28' W 000°39'1817.6
2016-Apr-29 03:33N 37°16' W 000°55'222 7.9
2016-Apr-27 23:31N 36°00' W 005°16'106 4.6
2016-Apr-27 00:33N 36°20' W 007°25'4012.4
2016-Apr-26 21:21N 36°14' W 008°14'911.6
2016-Apr-26 20:33N 36°12' W 008°25'1211.6
2016-Apr-26 19:32N 36°10' W 008°40'1111.5
2016-Apr-26 18:33N 36°08' W 008°54'1611.7
2016-Apr-26 17:13N 36°06' W 009°13'811.7
2016-Apr-26 16:33N 36°06' W 009°22'1211.8
2016-Apr-26 15:33N 36°06' W 009°37'1212.2
2016-Apr-26 14:33N 36°07' W 009°52'4112.7
2016-Apr-26 11:21N 36°13' W 010°42'6316.4
2016-Apr-26 07:32N 36°20' W 011°59'1717.1
2016-Apr-26 06:31N 36°22' W 012°21'1717.4
2016-Apr-26 05:33N 36°24' W 012°41'1917.2
2016-Apr-26 04:27N 36°27' W 013°05'2216.7
2016-Apr-26 03:09N 36°29' W 013°31'2716.8
2016-Apr-26 01:31N 36°33' W 014°05'1716.9
2016-Apr-26 00:32N 36°35' W 014°26'9017.1
2016-Apr-25 19:17N 36°46' W 016°17'36317.5
2016-Apr-24 22:33N 37°29' W 023°49'1717.5
2016-Apr-24 21:33N 37°32' W 024°11'1817.5
2016-Apr-24 20:33N 37°34' W 024°32'1717.4
2016-Apr-24 19:33N 37°37' W 024°54'1817.6
2016-Apr-24 18:33N 37°39' W 025°16'  
Track history (hours):
 
Tides and Currents Weather Stations Pressure Air Temp Water Temp Dewpoint Dewpoint Depression Visibility Wind Speed Wind Dir Waves Ship Positions

Thomson Dream

Last reported at 2016-May-04 18:07 UTC. Time now 2016-May-06 14:56 UTC.
Position N 37°47' E 016°05'.

Length 243 m; draft 7.6 m.

Type: Ship. MMSI: 248480975.

Date/timePositionNaut miles runAvg speedWind from/ knotsBaromVisibWave heightAir tempDewpointWater temp
2016-May-04 18:07N 37°47' E 016°05'1017.3
2016-May-04 17:33N 37°47' E 015°53'1616.4
2016-May-04 16:34N 37°50' E 015°32'1717.5
2016-May-04 15:33N 38°07' E 015°35'5 2.4
2016-May-04 13:33N 38°12' E 015°33'0 0.0
2016-May-04 12:33N 38°12' E 015°33'0 0.0
2016-May-04 11:33N 38°12' E 015°33'0 0.0
2016-May-04 10:33N 38°12' E 015°33'0 0.0
2016-May-04 09:33N 38°12' E 015°33'0 0.0
2016-May-04 08:33N 38°12' E 015°33'0 0.0
2016-May-04 07:33N 38°12' E 015°33'0 0.0
2016-May-04 06:33N 38°12' E 015°33'0 0.0
2016-May-04 05:21N 38°12' E 015°33'2 2.2
2016-May-04 04:33N 38°13' E 015°35'9 8.9
2016-May-04 03:34N 38°21' E 015°39'1211.9
2016-May-04 02:34N 38°32' E 015°32'1212.3
2016-May-04 01:33N 38°43' E 015°26'1312.6
2016-May-04 00:33N 38°55' E 015°20'1817.7
2016-May-03 23:33N 39°07' E 015°03'  
2016-May-01 00:32N 39°27' E 003°43'1717.7
2016-Apr-30 23:33N 39°19' E 003°23'1616.5
2016-Apr-30 22:33N 39°14' E 003°03'1818.0
2016-Apr-30 21:33N 39°20' E 002°41'1313.4
2016-Apr-30 20:33N 39°33' E 002°38'0 0.1
2016-Apr-30 19:33N 39°33' E 002°38'0 0.0
2016-Apr-30 18:33N 39°33' E 002°38'0 0.0
2016-Apr-30 17:33N 39°33' E 002°38'0 0.0
2016-Apr-30 16:33N 39°33' E 002°38'0 0.0
2016-Apr-30 15:33N 39°33' E 002°38'0 0.0
2016-Apr-30 14:33N 39°33' E 002°38'0 0.0
2016-Apr-30 13:33N 39°33' E 002°38'0 0.0
2016-Apr-30 12:21N 39°33' E 002°38'0 0.0
2016-Apr-30 11:33N 39°33' E 002°38'0 0.0
2016-Apr-30 10:33N 39°33' E 002°38'0 0.0
2016-Apr-30 09:27N 39°33' E 002°38'0 0.0
2016-Apr-30 08:33N 39°33' E 002°38'0 0.0
2016-Apr-30 07:33N 39°33' E 002°38'0 0.0
2016-Apr-30 06:33N 39°33' E 002°38'0 0.0
2016-Apr-30 05:33N 39°33' E 002°38'0 0.0
2016-Apr-30 04:33N 39°33' E 002°38'0 0.0
2016-Apr-30 03:33N 39°33' E 002°38'0 0.3
2016-Apr-30 02:34N 39°33' E 002°38'8 8.0
2016-Apr-30 01:33N 39°26' E 002°34'1515.4
2016-Apr-30 00:33N 39°21' E 002°15'1716.8
2016-Apr-29 23:33N 39°17' E 001°54'2418.4
2016-Apr-29 22:16N 39°11' E 001°24'110 7.0
2016-Apr-29 06:33N 38°01' W 000°24'1818.1
2016-Apr-29 05:33N 37°43' W 000°28'1717.1
2016-Apr-29 04:33N 37°28' W 000°39'1817.6
2016-Apr-29 03:33N 37°16' W 000°55'222 7.9
2016-Apr-27 23:31N 36°00' W 005°16'106 4.6
2016-Apr-27 00:33N 36°20' W 007°25'4012.4
2016-Apr-26 21:21N 36°14' W 008°14'911.6
2016-Apr-26 20:33N 36°12' W 008°25'1211.6
2016-Apr-26 19:32N 36°10' W 008°40'1111.5
2016-Apr-26 18:33N 36°08' W 008°54'1611.7
2016-Apr-26 17:13N 36°06' W 009°13'811.7
2016-Apr-26 16:33N 36°06' W 009°22'1211.8
2016-Apr-26 15:33N 36°06' W 009°37'1212.2
2016-Apr-26 14:33N 36°07' W 009°52'4112.7
2016-Apr-26 11:21N 36°13' W 010°42'6316.4
2016-Apr-26 07:32N 36°20' W 011°59'1717.1
2016-Apr-26 06:31N 36°22' W 012°21'1717.4
2016-Apr-26 05:33N 36°24' W 012°41'1917.2
2016-Apr-26 04:27N 36°27' W 013°05'2216.7
2016-Apr-26 03:09N 36°29' W 013°31'2716.8
2016-Apr-26 01:31N 36°33' W 014°05'1716.9
2016-Apr-26 00:32N 36°35' W 014°26'9017.1
2016-Apr-25 19:17N 36°46' W 016°17'36317.5
2016-Apr-24 22:33N 37°29' W 023°49'1717.5
2016-Apr-24 21:33N 37°32' W 024°11'1817.5
2016-Apr-24 20:33N 37°34' W 024°32'1717.4
2016-Apr-24 19:33N 37°37' W 024°54'1817.6
2016-Apr-24 18:33N 37°39' W 025°16'  

Dump ship's entire track history